createdAt,value
2024-03-28T00:00:12.798Z,92820.00
2024-03-28T00:01:12.924Z,92822.00
2024-03-28T00:02:13.103Z,92821.00
2024-03-28T00:03:13.273Z,92822.00
2024-03-28T00:04:13.450Z,92821.00
2024-03-28T00:55:46.670Z,92831.00
2024-03-28T00:56:18.681Z,92828.00
2024-03-28T00:57:18.763Z,92828.00
2024-03-28T00:58:18.907Z,92828.00
2024-03-28T00:59:18.930Z,92827.00
2024-03-28T01:00:19.034Z,92826.00
2024-03-28T01:01:19.120Z,92824.00
2024-03-28T01:02:19.227Z,92823.00
2024-03-28T01:03:19.338Z,92821.00
2024-03-28T01:04:19.431Z,92820.00
2024-03-28T01:05:19.537Z,92821.00
2024-03-28T01:06:19.646Z,92820.00
2024-03-28T01:07:19.733Z,92823.00
2024-03-28T01:08:19.833Z,92826.00
2024-03-28T01:09:19.935Z,92826.00
2024-03-28T01:10:20.037Z,92827.00
2024-03-28T01:11:20.171Z,92826.00
2024-03-28T01:12:20.289Z,92827.00
2024-03-28T01:13:20.406Z,92826.00
2024-03-28T01:14:20.563Z,92826.00
2024-03-28T01:15:20.692Z,92829.00
2024-03-28T01:16:20.875Z,92830.00
2024-03-28T01:17:21.027Z,92832.00
2024-03-28T01:18:21.179Z,92830.00
2024-03-28T01:19:21.333Z,92835.00
2024-03-28T01:20:21.496Z,92834.00
2024-03-28T01:21:21.662Z,92835.00
2024-03-28T01:22:21.827Z,92834.00
2024-03-28T01:23:21.972Z,92833.00
2024-03-28T01:24:22.104Z,92832.00
2024-03-28T01:25:22.271Z,92830.00
2024-03-28T01:26:22.441Z,92830.00
2024-03-28T01:27:22.653Z,92828.00
2024-03-28T01:28:22.722Z,92825.00
2024-03-28T01:29:22.892Z,92823.00
2024-03-28T01:30:23.039Z,92823.00
2024-03-28T01:31:23.204Z,92822.00
2024-03-28T01:32:23.463Z,92822.00
2024-03-28T01:33:23.510Z,92820.00
2024-03-28T01:34:23.670Z,92818.00
2024-03-28T01:35:23.842Z,92818.00
2024-03-28T01:36:23.994Z,92818.00
2024-03-28T01:37:24.191Z,92815.00
2024-03-28T01:38:24.297Z,92812.00
2024-03-28T01:39:24.412Z,92811.00
2024-03-28T01:40:24.537Z,92813.00
2024-03-28T01:41:24.657Z,92811.00
2024-03-28T01:42:24.837Z,92813.00
2024-03-28T01:43:24.890Z,92812.00
2024-03-28T01:44:25.032Z,92811.00
2024-03-28T01:45:25.137Z,92807.00
2024-03-28T01:46:40.216Z,92808.00
2024-03-28T01:47:41.988Z,92806.00
2024-03-28T01:48:25.421Z,92805.00
2024-03-28T01:49:25.503Z,92805.00
2024-03-28T01:50:25.562Z,92806.00
2024-03-28T01:51:25.659Z,92803.00
2024-03-28T01:52:25.730Z,92799.00
2024-03-28T01:53:25.838Z,92799.00
2024-03-28T01:54:25.901Z,92801.00
2024-03-28T01:55:25.989Z,92801.00
2024-03-28T01:56:26.068Z,92799.00
2024-03-28T01:57:26.174Z,92802.00
2024-03-28T01:58:26.254Z,92800.00
2024-03-28T01:59:26.326Z,92798.00
2024-03-28T02:00:26.408Z,92800.00
2024-03-28T02:01:26.508Z,92803.00
2024-03-28T02:02:26.586Z,92808.00
2024-03-28T02:03:26.670Z,92812.00
2024-03-28T02:04:26.755Z,92813.00
2024-03-28T02:05:26.831Z,92813.00
2024-03-28T02:06:26.922Z,92813.00
2024-03-28T02:07:27.010Z,92813.00
2024-03-28T02:08:27.105Z,92816.00
2024-03-28T02:09:27.205Z,92817.00
2024-03-28T02:10:27.293Z,92818.00
2024-03-28T02:11:27.399Z,92820.00
2024-03-28T02:12:28.050Z,92821.00
2024-03-28T02:13:27.615Z,92819.00
2024-03-28T02:14:27.721Z,92819.00
2024-03-28T02:15:27.806Z,92820.00
2024-03-28T02:16:27.884Z,92817.00
2024-03-28T02:17:28.026Z,92816.00
2024-03-28T02:18:28.100Z,92814.00
2024-03-28T02:19:28.162Z,92812.00
2024-03-28T02:20:28.254Z,92810.00
2024-03-28T02:21:28.334Z,92809.00
2024-03-28T02:22:28.467Z,92806.00
2024-03-28T02:23:28.653Z,92808.00
2024-03-28T02:24:28.773Z,92805.00
2024-03-28T02:25:28.936Z,92804.00
2024-03-28T02:26:29.073Z,92803.00
2024-03-28T02:27:29.226Z,92804.00
2024-03-28T02:28:29.389Z,92802.00
2024-03-28T02:29:29.528Z,92802.00
2024-03-28T02:30:29.698Z,92798.00
2024-03-28T02:31:29.831Z,92798.00
2024-03-28T02:32:29.996Z,92797.00
2024-03-28T02:33:30.149Z,92799.00
2024-03-28T02:34:30.295Z,92802.00
2024-03-28T02:35:30.454Z,92804.00
2024-03-28T02:36:30.630Z,92808.00
2024-03-28T02:37:30.751Z,92810.00
2024-03-28T02:38:30.874Z,92812.00
2024-03-28T02:39:30.988Z,92810.00
2024-03-28T02:40:31.104Z,92812.00
2024-03-28T02:41:31.222Z,92813.00
2024-03-28T02:42:32.046Z,92816.00
2024-03-28T02:43:31.439Z,92820.00
2024-03-28T02:44:31.589Z,92820.00
2024-03-28T02:45:31.748Z,92820.00
2024-03-28T02:46:32.095Z,92821.00
2024-03-28T02:47:32.115Z,92819.00
2024-03-28T02:48:32.277Z,92817.00
2024-03-28T02:49:32.445Z,92816.00
2024-03-28T02:50:32.583Z,92817.00
2024-03-28T02:51:32.794Z,92819.00
2024-03-28T02:52:32.886Z,92821.00
2024-03-28T02:53:33.039Z,92823.00
2024-03-28T02:54:33.212Z,92819.00
2024-03-28T02:55:33.342Z,92819.00
2024-03-28T02:56:33.458Z,92822.00
2024-03-28T02:57:33.577Z,92823.00
2024-03-28T02:58:33.725Z,92824.00
2024-03-28T02:59:33.839Z,92827.00
2024-03-28T03:00:33.960Z,92829.00
2024-03-28T03:01:34.149Z,92833.00
2024-03-28T03:02:34.337Z,92832.00
2024-03-28T03:03:34.505Z,92830.00
2024-03-28T03:04:34.651Z,92832.00
2024-03-28T03:05:34.835Z,92834.00
2024-03-28T03:06:34.990Z,92834.00
2024-03-28T03:07:35.213Z,92834.00
2024-03-28T03:08:35.298Z,92834.00
2024-03-28T03:09:35.467Z,92836.00
2024-03-28T03:10:35.638Z,92838.00
2024-03-28T03:11:35.768Z,92836.00
2024-03-28T03:12:35.923Z,92835.00
2024-03-28T03:13:36.085Z,92835.00
2024-03-28T03:14:36.242Z,92835.00
2024-03-28T03:15:36.412Z,92838.00
2024-03-28T03:16:36.560Z,92836.00
2024-03-28T03:17:36.722Z,92836.00
2024-03-28T03:18:36.910Z,92838.00
2024-03-28T03:19:37.024Z,92835.00
2024-03-28T03:20:37.179Z,92834.00
2024-03-28T03:21:37.282Z,92833.00
2024-03-28T03:22:37.410Z,92832.00
2024-03-28T03:23:37.538Z,92836.00
2024-03-28T03:24:37.659Z,92837.00
2024-03-28T03:25:37.781Z,92839.00
2024-03-28T03:26:37.898Z,92838.00
2024-03-28T03:27:38.026Z,92838.00
2024-03-28T03:28:38.166Z,92835.00
2024-03-28T03:29:38.311Z,92836.00
2024-03-28T03:30:38.443Z,92839.00
2024-03-28T03:31:38.584Z,92841.00
2024-03-28T03:32:38.729Z,92840.00
2024-03-28T03:33:38.862Z,92842.00
2024-03-28T03:34:39.011Z,92841.00
2024-03-28T03:35:39.119Z,92838.00
2024-03-28T03:36:39.240Z,92838.00
2024-03-28T03:37:39.374Z,92838.00
2024-03-28T03:38:39.497Z,92837.00
2024-03-28T03:39:39.612Z,92838.00
2024-03-28T03:40:39.734Z,92842.00
2024-03-28T03:41:39.847Z,92838.00
2024-03-28T03:42:39.982Z,92835.00
2024-03-28T03:43:40.073Z,92832.00
2024-03-28T03:44:40.201Z,92831.00
2024-03-28T03:45:40.320Z,92831.00
2024-03-28T03:46:40.453Z,92830.00
2024-03-28T03:47:40.569Z,92829.00
2024-03-28T03:48:40.696Z,92829.00
2024-03-28T03:49:40.822Z,92832.00
2024-03-28T03:50:40.962Z,92831.00
2024-03-28T03:51:41.072Z,92829.00
2024-03-28T03:52:41.184Z,92828.00
2024-03-28T03:53:41.290Z,92831.00
2024-03-28T03:54:41.400Z,92831.00
2024-03-28T03:55:41.509Z,92828.00
2024-03-28T03:56:41.604Z,92828.00
2024-03-28T03:57:41.705Z,92829.00
2024-03-28T03:58:41.801Z,92830.00
2024-03-28T03:59:41.903Z,92833.00
2024-03-28T04:00:42.005Z,92836.00
2024-03-28T04:01:42.106Z,92839.00
2024-03-28T04:02:42.204Z,92840.00
2024-03-28T04:03:42.300Z,92840.00
2024-03-28T04:04:42.410Z,92841.00
2024-03-28T04:05:42.519Z,92843.00
2024-03-28T04:06:42.614Z,92841.00
2024-03-28T04:07:42.709Z,92843.00
2024-03-28T04:08:42.799Z,92842.00
2024-03-28T04:09:42.902Z,92846.00
2024-03-28T04:10:42.998Z,92846.00
2024-03-28T04:11:43.116Z,92848.00
2024-03-28T04:12:43.181Z,92850.00
2024-03-28T04:13:43.293Z,92851.00
2024-03-28T04:14:46.828Z,92851.00
2024-03-28T04:15:43.466Z,92854.00
2024-03-28T04:16:43.555Z,92856.00
2024-03-28T04:17:43.645Z,92857.00
2024-03-28T04:18:43.721Z,92858.00
2024-03-28T04:19:43.809Z,92858.00
2024-03-28T04:20:43.874Z,92859.00
2024-03-28T04:21:43.991Z,92860.00
2024-03-28T04:22:44.060Z,92858.00
2024-03-28T04:23:44.137Z,92857.00
2024-03-28T04:24:44.225Z,92864.00
2024-03-28T04:25:44.299Z,92871.00
2024-03-28T04:26:44.393Z,92875.00
2024-03-28T04:27:44.489Z,92874.00
2024-03-28T04:28:44.553Z,92876.00
2024-03-28T04:29:52.424Z,92875.00
2024-03-28T04:30:44.738Z,92876.00
2024-03-28T04:31:44.827Z,92877.00
2024-03-28T04:32:44.909Z,92875.00
2024-03-28T04:33:44.998Z,92875.00
2024-03-28T04:34:45.084Z,92874.00
2024-03-28T04:35:45.175Z,92877.00
2024-03-28T04:36:45.270Z,92874.00
2024-03-28T04:37:45.363Z,92872.00
2024-03-28T04:38:45.464Z,92872.00
2024-03-28T04:39:45.537Z,92874.00
2024-03-28T04:40:45.626Z,92878.00
2024-03-28T04:41:45.707Z,92879.00
2024-03-28T04:42:45.783Z,92876.00
2024-03-28T04:43:45.868Z,92875.00
2024-03-28T04:44:45.952Z,92872.00
2024-03-28T04:45:46.044Z,92876.00
2024-03-28T04:46:46.132Z,92875.00
2024-03-28T04:47:46.219Z,92877.00
2024-03-28T04:48:46.287Z,92879.00
2024-03-28T04:49:46.374Z,92881.00
2024-03-28T04:50:46.472Z,92879.00
2024-03-28T04:51:46.563Z,92882.00
2024-03-28T04:52:46.652Z,92882.00
2024-03-28T04:53:46.758Z,92885.00
2024-03-28T04:54:46.848Z,92885.00
2024-03-28T04:55:46.941Z,92884.00
2024-03-28T04:56:47.027Z,92884.00
2024-03-28T04:57:47.575Z,92885.00
2024-03-28T04:58:47.231Z,92884.00
2024-03-28T04:59:47.320Z,92884.00
2024-03-28T05:00:47.404Z,92885.00
2024-03-28T05:01:47.560Z,92885.00
2024-03-28T05:02:47.731Z,92885.00
2024-03-28T05:03:47.890Z,92885.00
2024-03-28T05:04:48.076Z,92882.00
2024-03-28T05:05:48.204Z,92886.00
2024-03-28T05:06:55.617Z,92881.00
2024-03-28T05:07:56.623Z,92878.00
2024-03-28T05:08:56.657Z,92877.00
2024-03-28T05:09:56.665Z,92884.00
2024-03-28T05:10:56.705Z,92889.00
2024-03-28T05:11:56.962Z,92888.00
2024-03-28T05:12:56.735Z,92886.00
2024-03-28T05:13:56.766Z,92883.00
2024-03-28T05:14:56.785Z,92880.00
2024-03-28T05:15:56.822Z,92878.00
2024-03-28T05:16:56.822Z,92879.00
2024-03-28T05:17:56.845Z,92885.00
2024-03-28T05:18:56.860Z,92887.00
2024-03-28T05:19:56.870Z,92888.00
2024-03-28T05:20:56.894Z,92889.00
2024-03-28T05:21:56.964Z,92886.00
2024-03-28T05:22:56.939Z,92880.00
2024-03-28T05:23:56.957Z,92876.00
2024-03-28T05:24:57.250Z,92877.00
2024-03-28T05:25:56.991Z,92874.00
2024-03-28T05:26:56.998Z,92876.00
2024-03-28T05:27:57.020Z,92879.00
2024-03-28T05:28:57.038Z,92877.00
2024-03-28T05:29:57.043Z,92878.00
2024-03-28T05:30:57.069Z,92876.00
2024-03-28T05:31:57.069Z,92879.00
2024-03-28T05:32:57.083Z,92882.00
2024-03-28T05:33:59.905Z,92885.00
2024-03-28T05:34:57.113Z,92888.00
2024-03-28T05:35:57.128Z,92889.00
2024-03-28T05:36:57.148Z,92889.00
2024-03-28T05:37:57.186Z,92887.00
2024-03-28T05:38:57.176Z,92883.00
2024-03-28T05:39:57.204Z,92880.00
2024-03-28T05:40:57.226Z,92885.00
2024-03-28T05:41:57.221Z,92885.00
2024-03-28T05:42:57.232Z,92881.00
2024-03-28T05:43:57.248Z,92879.00
2024-03-28T05:44:57.276Z,92879.00
2024-03-28T05:45:57.279Z,92875.00
2024-03-28T05:46:57.294Z,92877.00
2024-03-28T05:47:57.308Z,92879.00
2024-03-28T05:48:57.319Z,92885.00
2024-03-28T05:49:57.336Z,92883.00
2024-03-28T05:50:57.353Z,92890.00
2024-03-28T05:51:57.361Z,92892.00
2024-03-28T05:52:57.384Z,92898.00
2024-03-28T05:53:57.380Z,92905.00
2024-03-28T05:54:57.390Z,92912.00
2024-03-28T05:55:57.401Z,92917.00
2024-03-28T05:56:57.427Z,92917.00
2024-03-28T05:57:57.426Z,92916.00
2024-03-28T05:58:57.418Z,92918.00
2024-03-28T05:59:57.429Z,92920.00
2024-03-28T06:00:57.430Z,92917.00
2024-03-28T06:01:57.437Z,92912.00
2024-03-28T06:02:57.457Z,92911.00
2024-03-28T06:03:57.508Z,92914.00
2024-03-28T06:04:57.559Z,92916.00
2024-03-28T06:05:57.617Z,92920.00
2024-03-28T06:06:57.664Z,92919.00
2024-03-28T06:07:57.719Z,92921.00
2024-03-28T06:08:57.783Z,92924.00
2024-03-28T06:09:57.849Z,92919.00
2024-03-28T06:10:57.903Z,92915.00
2024-03-28T06:11:57.973Z,92916.00
2024-03-28T06:12:58.060Z,92917.00
2024-03-28T06:13:58.099Z,92914.00
2024-03-28T06:14:58.157Z,92912.00
2024-03-28T06:15:58.201Z,92909.00
2024-03-28T06:16:58.256Z,92905.00
2024-03-28T06:17:58.309Z,92903.00
2024-03-28T06:18:58.356Z,92896.00
2024-03-28T06:19:58.459Z,92900.00
2024-03-28T06:20:58.463Z,92908.00
2024-03-28T06:21:58.515Z,92909.00
2024-03-28T06:22:58.565Z,92911.00
2024-03-28T06:23:58.594Z,92907.00
2024-03-28T06:24:58.622Z,92913.00
2024-03-28T06:25:58.672Z,92915.00
2024-03-28T06:26:58.717Z,92918.00
2024-03-28T06:27:58.762Z,92918.00
2024-03-28T06:28:58.841Z,92920.00
2024-03-28T06:29:58.845Z,92917.00
2024-03-28T06:30:58.866Z,92916.00
2024-03-28T06:31:58.905Z,92915.00
2024-03-28T06:32:58.943Z,92915.00
2024-03-28T06:33:58.990Z,92916.00
2024-03-28T06:34:59.677Z,92917.00
2024-03-28T06:35:59.108Z,92915.00
2024-03-28T06:36:59.165Z,92917.00
2024-03-28T06:37:59.231Z,92915.00
2024-03-28T06:38:59.290Z,92914.00
2024-03-28T06:39:59.347Z,92916.00
2024-03-28T06:40:59.403Z,92920.00
2024-03-28T06:41:59.414Z,92926.00
2024-03-28T06:42:59.458Z,92928.00
2024-03-28T06:43:59.491Z,92926.00
2024-03-28T06:44:59.527Z,92925.00
2024-03-28T06:45:59.538Z,92920.00
2024-03-28T06:46:59.549Z,92921.00
2024-03-28T06:47:59.538Z,92921.00
2024-03-28T06:48:59.551Z,92924.00
2024-03-28T06:49:59.573Z,92924.00
2024-03-28T06:50:59.571Z,92925.00
2024-03-28T06:51:59.563Z,92925.00
2024-03-28T06:52:59.574Z,92926.00
2024-03-28T06:53:59.590Z,92924.00
2024-03-28T06:54:59.582Z,92925.00
2024-03-28T06:55:59.587Z,92925.00
2024-03-28T06:56:59.597Z,92927.00
2024-03-28T06:57:59.609Z,92928.00
2024-03-28T06:58:59.590Z,92923.00
2024-03-28T06:59:59.610Z,92916.00
2024-03-28T07:00:59.684Z,92909.00
2024-03-28T07:01:59.710Z,92909.00
2024-03-28T07:02:59.746Z,92905.00
2024-03-28T07:03:59.769Z,92897.00
2024-03-28T07:04:59.794Z,92894.00
2024-03-28T07:06:00.668Z,92893.00
2024-03-28T07:06:59.816Z,92891.00
2024-03-28T07:07:59.814Z,92888.00
2024-03-28T07:08:59.800Z,92882.00
2024-03-28T07:09:59.793Z,92883.00
2024-03-28T07:10:59.788Z,92883.00
2024-03-28T07:11:59.776Z,92880.00
2024-03-28T07:12:59.783Z,92875.00
2024-03-28T07:14:00.296Z,92871.00
2024-03-28T07:14:59.768Z,92871.00
2024-03-28T07:15:59.756Z,92869.00
2024-03-28T07:16:59.772Z,92868.00
2024-03-28T07:17:59.767Z,92868.00
2024-03-28T07:18:59.760Z,92867.00
2024-03-28T07:19:59.761Z,92870.00
2024-03-28T07:20:59.759Z,92868.00
2024-03-28T07:21:59.760Z,92868.00
2024-03-28T07:22:59.750Z,92870.00
2024-03-28T07:23:59.751Z,92872.00
2024-03-28T07:24:59.743Z,92873.00
2024-03-28T07:25:59.752Z,92875.00
2024-03-28T07:26:59.755Z,92878.00
2024-03-28T07:27:59.752Z,92880.00
2024-03-28T07:29:03.730Z,92880.00
2024-03-28T07:29:59.768Z,92880.00
2024-03-28T07:30:59.772Z,92882.00
2024-03-28T07:31:59.821Z,92883.00
2024-03-28T07:32:59.908Z,92881.00
2024-03-28T07:33:59.876Z,92881.00
2024-03-28T07:34:59.935Z,92876.00
2024-03-28T07:35:59.970Z,92874.00
2024-03-28T07:37:00.042Z,92868.00
2024-03-28T07:38:00.800Z,92865.00
2024-03-28T07:39:00.183Z,92860.00
2024-03-28T07:40:00.263Z,92861.00
2024-03-28T07:41:00.322Z,92861.00
2024-03-28T07:42:00.410Z,92863.00
2024-03-28T07:43:00.408Z,92868.00
2024-03-28T07:44:00.445Z,92872.00
2024-03-28T07:45:00.485Z,92875.00
2024-03-28T07:46:00.516Z,92878.00
2024-03-28T07:47:00.507Z,92877.00
2024-03-28T07:48:00.570Z,92876.00
2024-03-28T07:49:00.612Z,92875.00
2024-03-28T07:50:00.624Z,92872.00
2024-03-28T07:51:00.631Z,92874.00
2024-03-28T07:52:00.646Z,92870.00
2024-03-28T07:53:00.675Z,92866.00
2024-03-28T07:54:00.665Z,92864.00
2024-03-28T07:55:00.656Z,92863.00
2024-03-28T07:56:00.652Z,92863.00
2024-03-28T07:57:00.647Z,92861.00
2024-03-28T07:58:00.625Z,92860.00
2024-03-28T07:59:00.622Z,92861.00
2024-03-28T08:00:00.659Z,92861.00
2024-03-28T08:01:00.608Z,92858.00
2024-03-28T08:02:00.582Z,92863.00
2024-03-28T08:03:00.595Z,92860.00
2024-03-28T08:04:00.601Z,92856.00
2024-03-28T08:05:00.584Z,92855.00
2024-03-28T08:06:00.528Z,92861.00
2024-03-28T08:07:00.522Z,92864.00
2024-03-28T08:08:00.490Z,92865.00
2024-03-28T08:09:00.478Z,92868.00
2024-03-28T08:10:00.488Z,92872.00
2024-03-28T08:11:00.503Z,92875.00
2024-03-28T08:12:00.511Z,92878.00
2024-03-28T08:13:00.532Z,92882.00
2024-03-28T08:14:00.554Z,92885.00
2024-03-28T08:15:00.562Z,92882.00
2024-03-28T08:16:00.595Z,92885.00
2024-03-28T08:17:00.609Z,92886.00
2024-03-28T08:18:00.657Z,92889.00
2024-03-28T08:19:00.663Z,92889.00
2024-03-28T08:20:00.655Z,92885.00
2024-03-28T08:21:00.710Z,92880.00
2024-03-28T08:22:00.663Z,92875.00
2024-03-28T08:23:00.650Z,92871.00
2024-03-28T08:24:00.621Z,92866.00
2024-03-28T08:25:00.626Z,92865.00
2024-03-28T08:26:00.572Z,92863.00
2024-03-28T08:27:00.544Z,92865.00
2024-03-28T08:28:00.507Z,92862.00
2024-03-28T08:29:00.503Z,92863.00
2024-03-28T08:30:00.518Z,92863.00
2024-03-28T08:31:00.503Z,92864.00
2024-03-28T08:32:00.476Z,92862.00
2024-03-28T08:33:00.460Z,92860.00
2024-03-28T08:34:00.424Z,92859.00
2024-03-28T08:35:00.410Z,92857.00
2024-03-28T08:36:00.337Z,92856.00
2024-03-28T08:37:00.316Z,92855.00
2024-03-28T08:38:00.258Z,92852.00
2024-03-28T08:39:00.239Z,92849.00
2024-03-28T08:40:00.204Z,92847.00
2024-03-28T08:41:00.163Z,92840.00
2024-03-28T08:42:00.101Z,92839.00
2024-03-28T08:43:03.308Z,92835.00
2024-03-28T08:43:59.995Z,92836.00
2024-03-28T08:44:59.930Z,92836.00
2024-03-28T08:45:59.887Z,92839.00
2024-03-28T08:46:59.809Z,92837.00
2024-03-28T08:47:59.754Z,92842.00
2024-03-28T08:49:00.408Z,92841.00
2024-03-28T08:49:59.619Z,92843.00
2024-03-28T08:50:59.559Z,92844.00
2024-03-28T08:51:59.498Z,92846.00
2024-03-28T08:52:59.449Z,92848.00
2024-03-28T08:53:59.346Z,92845.00
2024-03-28T08:54:59.283Z,92843.00
2024-03-28T08:55:59.209Z,92836.00
2024-03-28T08:56:59.149Z,92833.00
2024-03-28T08:57:59.127Z,92834.00
2024-03-28T08:58:59.017Z,92832.00
2024-03-28T08:59:58.986Z,92828.00
2024-03-28T09:00:58.862Z,92826.00
2024-03-28T09:01:58.790Z,92824.00
2024-03-28T09:02:58.715Z,92823.00
2024-03-28T09:03:58.632Z,92824.00
2024-03-28T09:04:58.557Z,92825.00
2024-03-28T09:05:58.529Z,92825.00
2024-03-28T09:06:58.522Z,92824.00
2024-03-28T09:07:58.495Z,92825.00
2024-03-28T09:08:58.494Z,92824.00
2024-03-28T09:09:58.430Z,92825.00
2024-03-28T09:10:58.372Z,92828.00
2024-03-28T09:11:58.327Z,92827.00
2024-03-28T09:12:58.299Z,92832.00
2024-03-28T09:13:58.250Z,92831.00
2024-03-28T09:14:58.176Z,92831.00
2024-03-28T09:15:58.167Z,92832.00
2024-03-28T09:16:58.135Z,92831.00
2024-03-28T09:17:58.137Z,92831.00
2024-03-28T09:18:58.089Z,92832.00
2024-03-28T09:19:58.063Z,92831.00
2024-03-28T09:20:58.041Z,92830.00
2024-03-28T09:21:58.011Z,92829.00
2024-03-28T09:22:57.916Z,92831.00
2024-03-28T09:23:57.846Z,92834.00
2024-03-28T09:24:57.794Z,92837.00
2024-03-28T09:25:57.710Z,92841.00
2024-03-28T09:26:57.625Z,92843.00
2024-03-28T09:27:57.566Z,92841.00
2024-03-28T09:28:57.478Z,92841.00
2024-03-28T09:29:57.396Z,92840.00
2024-03-28T09:30:57.324Z,92842.00
2024-03-28T09:31:57.256Z,92842.00
2024-03-28T09:32:57.199Z,92845.00
2024-03-28T09:33:57.173Z,92844.00
2024-03-28T09:34:57.096Z,92846.00
2024-03-28T09:35:57.059Z,92843.00
2024-03-28T09:36:57.014Z,92844.00
2024-03-28T09:37:56.965Z,92842.00
2024-03-28T09:38:56.925Z,92844.00
2024-03-28T09:39:57.591Z,92842.00
2024-03-28T09:40:56.982Z,92841.00
2024-03-28T09:41:56.922Z,92836.00
2024-03-28T09:42:56.905Z,92839.00
2024-03-28T09:43:56.829Z,92840.00
2024-03-28T09:44:56.787Z,92841.00
2024-03-28T09:45:56.740Z,92841.00
2024-03-28T09:46:58.699Z,92844.00
2024-03-28T09:47:59.881Z,92845.00
2024-03-28T09:48:56.458Z,92848.00
2024-03-28T09:49:56.345Z,92848.00
2024-03-28T09:50:56.254Z,92849.00
2024-03-28T09:51:56.248Z,92854.00
2024-03-28T09:52:56.045Z,92855.00
2024-03-28T09:53:55.932Z,92854.00
2024-03-28T09:54:55.829Z,92852.00
2024-03-28T09:55:55.710Z,92850.00
2024-03-28T09:57:01.606Z,92846.00
2024-03-28T09:57:55.537Z,92845.00
2024-03-28T09:58:55.818Z,92847.00
2024-03-28T09:59:55.296Z,92847.00
2024-03-28T10:00:55.175Z,92849.00
2024-03-28T10:01:55.060Z,92848.00
2024-03-28T10:02:54.944Z,92852.00
2024-03-28T10:03:54.853Z,92854.00
2024-03-28T10:04:54.746Z,92853.00
2024-03-28T10:05:54.632Z,92855.00
2024-03-28T10:06:54.553Z,92853.00
2024-03-28T10:07:54.450Z,92853.00
2024-03-28T10:08:54.329Z,92853.00
2024-03-28T10:09:54.244Z,92854.00
2024-03-28T10:10:54.129Z,92857.00
2024-03-28T10:11:54.050Z,92858.00
2024-03-28T10:12:53.930Z,92860.00
2024-03-28T10:13:53.851Z,92857.00
2024-03-28T10:14:53.735Z,92859.00
2024-03-28T10:15:53.663Z,92856.00
2024-03-28T10:16:53.606Z,92860.00
2024-03-28T10:17:53.450Z,92860.00
2024-03-28T10:18:53.332Z,92863.00
2024-03-28T10:19:53.267Z,92861.00
2024-03-28T10:20:53.196Z,92860.00
2024-03-28T10:21:53.167Z,92859.00
2024-03-28T10:22:53.139Z,92858.00
2024-03-28T10:23:53.062Z,92859.00
2024-03-28T10:24:53.021Z,92861.00
2024-03-28T10:25:52.989Z,92865.00
2024-03-28T10:26:52.950Z,92867.00
2024-03-28T10:27:52.888Z,92871.00
2024-03-28T10:28:52.838Z,92868.00
2024-03-28T10:29:52.875Z,92865.00
2024-03-28T10:30:52.784Z,92864.00
2024-03-28T10:31:52.748Z,92861.00
2024-03-28T10:32:52.695Z,92863.00
2024-03-28T10:33:52.674Z,92864.00
2024-03-28T10:34:52.630Z,92865.00
2024-03-28T10:35:52.579Z,92868.00
2024-03-28T10:36:52.508Z,92868.00
2024-03-28T10:37:56.760Z,92869.00
2024-03-28T10:38:52.375Z,92866.00
2024-03-28T10:39:52.287Z,92863.00
2024-03-28T10:40:52.277Z,92863.00
2024-03-28T10:41:52.134Z,92864.00
2024-03-28T10:42:52.075Z,92864.00
2024-03-28T10:43:51.998Z,92862.00
2024-03-28T10:44:51.931Z,92861.00
2024-03-28T10:45:51.876Z,92864.00
2024-03-28T10:46:51.786Z,92863.00
2024-03-28T10:47:51.700Z,92864.00
2024-03-28T10:48:51.612Z,92865.00
2024-03-28T10:49:51.665Z,92864.00
2024-03-28T10:50:51.442Z,92865.00
2024-03-28T10:51:51.657Z,92864.00
2024-03-28T10:52:51.288Z,92864.00
2024-03-28T10:53:51.210Z,92870.00
2024-03-28T10:54:51.130Z,92874.00
2024-03-28T10:55:51.049Z,92877.00
2024-03-28T10:56:50.966Z,92881.00
2024-03-28T10:57:50.898Z,92877.00
2024-03-28T10:58:50.810Z,92874.00
2024-03-28T10:59:50.732Z,92873.00
2024-03-28T11:00:53.293Z,92871.00
2024-03-28T11:01:50.560Z,92873.00
2024-03-28T11:02:50.478Z,92873.00
2024-03-28T11:03:50.370Z,92871.00
2024-03-28T11:04:50.279Z,92872.00
2024-03-28T11:05:50.188Z,92877.00
2024-03-28T11:06:50.119Z,92874.00
2024-03-28T11:07:50.012Z,92875.00
2024-03-28T11:08:49.933Z,92878.00
2024-03-28T11:09:49.822Z,92883.00
2024-03-28T11:10:49.724Z,92886.00
2024-03-28T11:11:49.636Z,92885.00
2024-03-28T11:12:49.559Z,92884.00
2024-03-28T11:13:51.323Z,92884.00
2024-03-28T11:14:49.342Z,92887.00
2024-03-28T11:15:49.254Z,92887.00
2024-03-28T11:16:49.127Z,92889.00
2024-03-28T11:17:49.046Z,92887.00
2024-03-28T11:18:48.931Z,92888.00
2024-03-28T11:19:48.838Z,92893.00
2024-03-28T11:20:48.735Z,92894.00
2024-03-28T11:21:48.612Z,92892.00
2024-03-28T11:22:48.522Z,92889.00
2024-03-28T11:23:48.408Z,92887.00
2024-03-28T11:24:48.302Z,92886.00
2024-03-28T11:25:48.206Z,92889.00
2024-03-28T11:26:48.105Z,92893.00
2024-03-28T11:27:48.001Z,92900.00
2024-03-28T11:28:47.884Z,92905.00
2024-03-28T11:29:47.792Z,92908.00
2024-03-28T11:30:47.676Z,92911.00
2024-03-28T11:31:47.560Z,92915.00
2024-03-28T11:32:47.500Z,92917.00
2024-03-28T11:33:47.441Z,92916.00
2024-03-28T11:34:47.252Z,92911.00
2024-03-28T11:35:47.122Z,92913.00
2024-03-28T11:36:47.018Z,92918.00
2024-03-28T11:37:46.925Z,92925.00
2024-03-28T11:38:46.816Z,92932.00
2024-03-28T11:39:46.710Z,92940.00
2024-03-28T11:40:46.607Z,92935.00
2024-03-28T11:41:46.504Z,92929.00
2024-03-28T11:42:47.028Z,92942.00
2024-03-28T11:43:46.343Z,92952.00
2024-03-28T11:44:46.226Z,92944.00
2024-03-28T11:45:46.170Z,92945.00
2024-03-28T11:46:46.120Z,92956.00
2024-03-28T11:47:46.063Z,92971.00
2024-03-28T11:48:46.013Z,92965.00
2024-03-28T11:49:45.968Z,92974.00
2024-03-28T11:50:45.899Z,92962.00
2024-03-28T11:51:45.847Z,92977.00
2024-03-28T11:52:45.840Z,92973.00
2024-03-28T11:53:56.847Z,92975.00
2024-03-28T11:54:45.825Z,92992.00
2024-03-28T11:55:45.811Z,92974.00
2024-03-28T11:56:45.822Z,92978.00
2024-03-28T11:57:45.808Z,92996.00
2024-03-28T11:58:45.791Z,92990.00
2024-03-28T11:59:45.797Z,92988.00
2024-03-28T12:00:45.784Z,92983.00
2024-03-28T12:01:45.804Z,92998.00
2024-03-28T12:02:45.774Z,93018.00
2024-03-28T12:03:45.768Z,93024.00
2024-03-28T12:04:45.755Z,93014.00
2024-03-28T12:05:45.782Z,93029.00
2024-03-28T12:06:45.769Z,92996.00
2024-03-28T12:07:45.801Z,93021.00
2024-03-28T12:08:45.797Z,93014.00
2024-03-28T12:09:45.809Z,93012.00
2024-03-28T12:10:45.846Z,93041.00
2024-03-28T12:11:45.830Z,93030.00
2024-03-28T12:12:45.844Z,93053.00
2024-03-28T12:13:45.875Z,93050.00
2024-03-28T12:14:46.707Z,93061.00
2024-03-28T12:15:45.878Z,93091.00
2024-03-28T12:16:45.883Z,93049.00
2024-03-28T12:17:45.914Z,93067.00
2024-03-28T12:18:45.929Z,93072.00
2024-03-28T12:19:45.956Z,93069.00
2024-03-28T12:20:45.973Z,93064.00
2024-03-28T12:21:46.018Z,93078.00
2024-03-28T12:22:46.037Z,93088.00
2024-03-28T12:23:46.046Z,93106.00
2024-03-28T12:24:46.104Z,93098.00
2024-03-28T12:25:46.096Z,93106.00
2024-03-28T12:26:46.115Z,93094.00
2024-03-28T12:27:46.155Z,93103.00
2024-03-28T12:28:46.179Z,93105.00
2024-03-28T12:29:46.218Z,93119.00
2024-03-28T12:30:46.279Z,93104.00
2024-03-28T12:31:46.370Z,93099.00
2024-03-28T12:32:46.413Z,93119.00
2024-03-28T12:33:46.518Z,93107.00
2024-03-28T12:34:46.600Z,93122.00